Home > Products > Valid Products > MTR

000
SAUS44 KLCH 190854
MTRP92
METAR KP92 190853Z AUTO 00000KT 16/14 A3012 RMK AO1 SLP199 T01560139
55000





000
SAUS44 KLCH 190755
MTRP92
METAR KP92 190753Z AUTO 00000KT 16/14 A3011 RMK AO1 SLP194 T01610139





000
SAUS44 KLCH 190655
MTRP92
METAR KP92 190653Z AUTO 00000KT 17/14 A3011 RMK AO1 SLP197 T01670144





000
SAUS44 KLCH 190555
MTRP92
METAR KP92 190553Z AUTO 00000KT 18/15 A3012 RMK AO1 SLP199 6////
T01780150 10233 20178 402780178 50002





000
SAUS44 KLCH 190455
MTRP92
METAR KP92 190453Z AUTO 00000KT 18/15 A3013 RMK AO1 SLP204 T01830150





000
SAUS44 KLCH 190355
MTRP92
METAR KP92 190353Z AUTO 00000KT 19/16 A3012 RMK AO1 SLP200 T01890161





000
SAUS44 KLCH 190255
MTRP92
METAR KP92 190253Z AUTO 00000KT 20/17 A3012 RMK AO1 SLP197 6////
T02000167





000
SAUS44 KLCH 190154
MTRP92
METAR KP92 190153Z AUTO 00000KT 22/17 A3009 RMK AO1 SLP188 T02170167





000
SAUS44 KLCH 190054
MTRP92
METAR KP92 190053Z AUTO 00000KT 22/17 A3006 RMK AO1 SLP178 T02220167





000
SAUS44 KLCH 182354
MTRP92
METAR KP92 182353Z AUTO 02004KT 23/17 A3004 RMK AO1 SLP173 T02330167
10278 20228 53004





000
SAUS44 KLCH 182254
MTRP92
METAR KP92 182253Z AUTO 00000KT 26/14 A3003 RMK AO1 SLP169 T02610144





000
SAUS44 KLCH 182154
MTRP92
METAR KP92 182153Z AUTO 01004KT 27/14 A3003 RMK AO1 SLP167 T02670139





000
SAUS44 KLCH 182054
MTRP92
METAR KP92 182053Z AUTO VRB04KT 28/14 A3003 RMK AO1 SLP169 T02780144
56015





000
SAUS44 KLCH 181955
MTRP92
METAR KP92 181953Z AUTO 02005KT 27/15 A3004 RMK AO1 SLP173 T02670150





000
SAUS44 KLCH 181854
MTRP92
METAR KP92 181853Z AUTO VRB05KT 25/16 A3006 RMK AO1 SLP177 T02500156





000
SAUS44 KLCH 181754
MTRP92
METAR KP92 181753Z AUTO VRB05KT 23/17 A3007 RMK AO1 SLP183 T02330167
10239 20178 58009





000
SAUS44 KLCH 181654
MTRP92
METAR KP92 181653Z AUTO VRB04KT 23/16 A3010 RMK AO1 SLP191 T02330156





000
SAUS44 KLCH 181554
MTRP92
METAR KP92 181553Z AUTO VRB04KT 23/16 A3010 RMK AO1 SLP192 T02280156





000
SAUS44 KLCH 181455
MTRP92
METAR KP92 181453Z AUTO VRB04KT 21/16 A3010 RMK AO1 SLP193 T02060156
50001





000
SAUS44 KLCH 181354
MTRP92
METAR KP92 181353Z AUTO VRB04KT 19/16 A3011 RMK AO1 SLP195 T01890156





000
SAUS44 KLCH 181254
MTRP92
METAR KP92 181253Z AUTO VRB04KT 18/16 A3011 RMK AO1 SLP197 T01780156





000
SAUS44 KLCH 181155
MTRP92
METAR KP92 181153Z AUTO 35005KT 18/16 A3010 RMK AO1 SLP192 70001
T01780156 10183 20178 53016





000
SAUS44 KLCH 181055
MTRP92
METAR KP92 181053Z AUTO 35004KT 18/16 A3006 RMK AO1 SLP180 T01780161





000
SAUS44 KLCH 180955
MTRP92
METAR KP92 180953Z AUTO 00000KT 18/16 A3007 RMK AO1 SLP183 T01830161





000
SAUS44 KLCH 180854
MTRP92
METAR KP92 180853Z AUTO 35003KT 18/16 A3005 RMK AO1 SLP177 T01830161
58016





000
SAUS44 KLCH 180754
MTRP92
METAR KP92 180753Z AUTO 00000KT 18/16 A3007 RMK AO1 SLP182 T01830161





000
SAUS44 KLCH 180655
MTRP92
METAR KP92 180653Z AUTO 00000KT 18/16 A3009 RMK AO1 SLP188 T01830161





000
SAUS44 KLCH 180554
MTRP92
METAR KP92 180553Z AUTO 00000KT 18/16 A3010 RMK AO1 SLP192 T01830161
10189 20183 401940128 50002





000
SAUS44 KLCH 180455
MTRP92
METAR KP92 180453Z AUTO 00000KT 19/16 A3010 RMK AO1 SLP193 T01890161





000
SAUS44 KLCH 180354
MTRP92
METAR KP92 180353Z AUTO VRB03KT 19/16 A3010 RMK AO1 SLP191 T01890161





000
SAUS44 KLCH 180255
MTRP92
METAR KP92 180253Z AUTO 00000KT 19/16 A3010 RMK AO1 SLP191 T01890161
53007





000
SAUS44 KLCH 180155
MTRP92
METAR KP92 180153Z AUTO VRB03KT 19/16 A3008 RMK AO1 SLP185 T01890161





000
SAUS44 KLCH 180054
MTRP92
METAR KP92 180053Z AUTO 00000KT 19/16 A3009 RMK AO1 SLP187 T01890161





000
SAUS44 KLCH 172355
MTRP92
METAR KP92 172353Z AUTO VRB03KT 19/16 A3008 RMK AO1 SLP184 60001
T01890161 10194 20183 56004





000
SAUS44 KLCH 172255
MTRP92
METAR KP92 172253Z AUTO VRB03KT 19/16 A3009 RMK AO1 SLP187 T01940156





000
SAUS44 KLCH 172155
MTRP92
METAR KP92 172153Z AUTO VRB03KT 19/16 A3008 RMK AO1 SLP185 P0001
T01890156





000
SAUS44 KLCH 172054
MTRP92
METAR KP92 172053Z AUTO VRB03KT 19/15 A3009 RMK AO1 SLP188 T01890150
58021





000
SAUS44 KLCH 171955
MTRP92
METAR KP92 171953Z AUTO 02004KT 18/14 A3011 RMK AO1 SLP197 T01830144





000
SAUS44 KLCH 171855
MTRP92
METAR KP92 171853Z AUTO 00000KT 19/13 A3013 RMK AO1 SLP202 T01890133





000
SAUS44 KLCH 171755
MTRP92
METAR KP92 171754Z AUTO 00000KT 19/13 A3015 RMK AO1 SLP209 T01890133
10189 20144





000
SAUS44 KLCH 171654
MTRP92
METAR KP92 171653Z AUTO 00000KT 19/13 A3016 RMK AO1 SLP213 T01890128





000
SAUS44 KLCH 171554
MTRP92
METAR KP92 171553Z AUTO VRB03KT 19/13 A3018 RMK AO1 SLP219 T01890128





000
SAUS44 KLCH 171455
MTRP92
METAR KP92 171453Z AUTO VRB03KT 18/12 A3015 RMK AO1 SLP209 T01830122
51012





000
SAUS44 KLCH 171354
MTRP92
METAR KP92 171353Z AUTO VRB03KT 17/12 A3014 RMK AO1 SLP205 T01670117





000
SAUS44 KLCH 171254
MTRP92
METAR KP92 171253Z AUTO VRB04KT 15/11 A3014 RMK AO1 SLP205 T01500111





000
SAUS44 KLCH 171154
MTRP92
METAR KP92 171153Z AUTO VRB03KT 14/11 A3011 RMK AO1 SLP197 7////
T01440106 10144 20128 53006





000
SAUS44 KLCH 171055
MTRP92
METAR KP92 171053Z AUTO 00000KT 14/10 A3010 RMK AO1 SLP191 T01440100





000
SAUS44 KLCH 170954
MTRP92
METAR KP92 170953Z AUTO 00000KT 14/10 A3010 RMK AO1 SLP192 T01440100





000
SAUS44 KLCH 170854
MTRP92
METAR KP92 170853Z AUTO VRB03KT 14/11 A3010 RMK AO1 SLP191 T01390106





000
SAUS44 KLCH 170754
MTRP92
METAR KP92 170753Z AUTO 00000KT 14/09 A3009 RMK AO1 SLP187 T01390094





000
SAUS44 KLCH 170655
MTRP92
METAR KP92 170653Z AUTO VRB03KT 13/09 A3010 RMK AO1 SLP193 T01280089





000
SAUS44 KLCH 170555
MTRP92
METAR KP92 170553Z AUTO VRB03KT 13/09 A3013 RMK AO1 SLP202 T01280094
10178 20128 401940067 50002





000
SAUS44 KLCH 170455
MTRP92
METAR KP92 170453Z AUTO 10003KT 14/09 A3014 RMK AO1 SLP206 T01390094





000
SAUS44 KLCH 170354
MTRP92
METAR KP92 170353Z AUTO 12006KT 14/09 A3013 RMK AO1 SLP204 T01440094





000
SAUS44 KLCH 170254
MTRP92
METAR KP92 170253Z AUTO 12007KT 16/09 A3012 RMK AO1 SLP199 T01560094
53012





000
SAUS44 KLCH 170154
MTRP92
METAR KP92 170153Z AUTO 13008KT 16/09 A3011 RMK AO1 SLP194 T01610094





000
SAUS44 KLCH 170054
MTRP92
METAR KP92 170053Z AUTO 13006KT 17/09 A3008 RMK AO1 SLP187 T01670094





000
SAUS44 KLCH 162354
MTRP92
METAR KP92 162353Z AUTO VRB04KT 18/10 A3009 RMK AO1 SLP188 T01780100
10194 20172 55009





000
SAUS44 KLCH 162254
MTRP92
METAR KP92 162253Z AUTO VRB04KT 18/09 A3009 RMK AO1 SLP187 T01780094





000
SAUS44 KLCH 162155
MTRP92
METAR KP92 162153Z AUTO VRB05KT 18/08 A3010 RMK AO1 SLP193 T01830083





000
SAUS44 KLCH 162054
MTRP92
METAR KP92 162053Z AUTO VRB04KT 18/08 A3012 RMK AO1 SLP198 T01830083
$





000
SAUS44 KLCH 161955
MTRP92
METAR KP92 161953Z AUTO VRB05KT 18/08 A3013 RMK AO1 SLP203 T01830083





000
SAUS44 KLCH 161854
MTRP92
METAR KP92 161853Z AUTO VRB06KT 18/07 A3016 RMK AO1 SLP212 T01830072





000
SAUS44 KLCH 161754
MTRP92
METAR KP92 161753Z AUTO 14008G15KT 17/06 A3019 RMK AO1 SLP221 6////
T01720061 10178 20067 58013





000
SAUS44 KLCH 161655
MTRP92
METAR KP92 161653Z AUTO VRB06KT 17/06 A3022 RMK AO1 SLP233 T01720061
PNO $





000
SAUS44 KLCH 161554
MTRP92
METAR KP92 161553Z AUTO 11007KT 070V140 16/04 A3023 RMK AO1 SLP235
T01560044





000
SAUS44 KLCH 161454
MTRP92
METAR KP92 161453Z AUTO VRB03KT 14/03 A3022 RMK AO1 SLP234 T01390028
51005





000
SAUS44 KLCH 161354
MTRP92
METAR KP92 161353Z AUTO 07007KT 12/04 A3022 RMK AO1 SLP232 T01220039





000
SAUS44 KLCH 161254
MTRP92
METAR KP92 161253Z AUTO VRB03KT 09/04 A3022 RMK AO1 SLP232 T00940044





000
SAUS44 KLCH 161155
MTRP92
METAR KP92 161153Z AUTO 00000KT 07/03 A3021 RMK AO1 SLP229 T00670033
10100 20067 53011





000
SAUS44 KLCH 161054
MTRP92
METAR KP92 161053Z AUTO 00000KT 07/03 A3019 RMK AO1 SLP222 T00720028





000
SAUS44 KLCH 160954
MTRP92
METAR KP92 160953Z AUTO 05003KT 07/03 A3018 RMK AO1 SLP219 T00720033





    US Dept of Commerce
    National Oceanic and Atmospheric Administration
    National Weather Service
    1325 East West Highway
    Silver Spring, MD 20910
    Page Author: NWS Internet Services Team
Disclaimer
Information Quality
Credits
Glossary
Privacy Policy
Freedom of Information Act (FOIA)
About Us
Career Opportunities